< < Back
Terminal Aerodrome Forecast


Current Version              Previous Versions:   1  2  3  4  5  6  7  8  9  

Terminal Aerodrome Forecast

805
FTUS44 KOHX 180500
TAFBNA
TAF
KBNA 180520Z 1806/1906 00000KT P6SM BKN080
     FM181000 00000KT 4SM BR SCT250
     FM181400 04004KT P6SM SCT060 SCT250
     FM190100 03004KT P6SM SKC=

Latest METAR

175
SAUS70 KWBC 190100 RRB
MTRBNA
METAR KBNA 190053Z 02004KT 10SM BKN055 OVC250 22/16 A3001 RMK AO2 SLP159
T02170156


USA.gov is the U.S. government's official web portal to all federal, state and local government web resources and services.